createdAt,value
2022-11-05T00:01:51.088Z,8.27
2022-11-05T00:04:36.100Z,6.78
2022-11-05T00:07:39.668Z,4.65
2022-11-05T00:10:13.134Z,4.60
2022-11-05T00:12:58.328Z,8.80
2022-11-05T00:15:43.460Z,3.67
2022-11-05T00:18:09.986Z,5.80
2022-11-05T00:20:36.488Z,4.45
2022-11-05T00:23:22.698Z,5.38
2022-11-05T00:26:03.245Z,10.95
2022-11-05T00:28:30.171Z,7.63
2022-11-05T00:31:04.605Z,7.40
2022-11-05T00:33:31.600Z,8.80
2022-11-05T00:35:58.077Z,4.88
2022-11-05T00:38:24.722Z,6.28
2022-11-05T00:40:51.184Z,8.02
2022-11-05T00:43:36.261Z,11.95
2022-11-05T00:46:02.766Z,7.15
2022-11-05T00:48:47.645Z,6.93
2022-11-05T00:51:14.189Z,7.28
2022-11-05T00:53:40.651Z,5.15
2022-11-05T00:56:07.174Z,4.03
2022-11-05T00:58:33.620Z,7.72
2022-11-05T01:01:01.040Z,7.63
2022-11-05T01:03:33.049Z,6.07
2022-11-05T01:06:14.552Z,8.90
2022-11-05T01:08:42.537Z,5.22
2022-11-05T01:11:32.852Z,7.38
2022-11-05T01:14:05.049Z,8.43
2022-11-05T01:16:31.994Z,3.50
2022-11-05T01:18:58.679Z,8.52
2022-11-05T01:21:25.187Z,7.97
2022-11-05T01:23:51.733Z,8.63
2022-11-05T01:26:18.267Z,6.97
2022-11-05T01:28:44.950Z,9.73
2022-11-05T01:31:11.525Z,6.30
2022-11-05T01:33:37.982Z,12.63
2022-11-05T01:36:05.006Z,8.40
2022-11-05T01:38:31.476Z,8.70
2022-11-05T01:40:57.980Z,8.68
2022-11-05T01:43:24.476Z,9.30
2022-11-05T01:45:56.816Z,8.68
2022-11-05T01:48:28.201Z,13.40
2022-11-05T01:51:03.065Z,4.72
2022-11-05T01:53:38.414Z,8.95
2022-11-05T01:56:24.629Z,10.57
2022-11-05T01:58:57.497Z,9.93
2022-11-05T02:01:24.529Z,10.57
2022-11-05T02:03:53.853Z,7.35
2022-11-05T02:06:21.390Z,11.77
2022-11-05T02:09:07.216Z,12.38
2022-11-05T02:11:33.734Z,7.78
2022-11-05T02:14:00.340Z,8.00
2022-11-05T02:16:39.919Z,9.73
2022-11-05T02:19:25.042Z,8.00
2022-11-05T02:22:15.589Z,7.97
2022-11-05T02:24:57.088Z,6.93
2022-11-05T02:27:53.300Z,6.97
2022-11-05T02:30:55.403Z,12.20
2022-11-05T02:33:33.996Z,10.07
2022-11-05T02:36:03.389Z,11.10
2022-11-05T02:38:53.794Z,10.30
2022-11-05T02:41:29.629Z,7.40
2022-11-05T02:44:02.137Z,8.75
2022-11-05T02:46:34.435Z,7.60
2022-11-05T02:49:23.405Z,8.82
2022-11-05T02:51:58.246Z,9.20
2022-11-05T02:54:50.190Z,7.05
2022-11-05T02:57:19.533Z,6.65
2022-11-05T02:59:46.077Z,7.45
2022-11-05T03:02:12.867Z,7.32
2022-11-05T03:04:39.441Z,7.25
2022-11-05T03:07:27.350Z,3.65
2022-11-05T03:10:32.644Z,4.57
2022-11-05T03:13:04.313Z,11.13
2022-11-05T03:15:52.432Z,10.30
2022-11-05T03:18:25.731Z,4.63
2022-11-05T03:21:04.320Z,4.63
2022-11-05T03:23:42.574Z,5.28
2022-11-05T03:26:31.767Z,5.93
2022-11-05T03:29:06.460Z,4.60
2022-11-05T03:31:35.122Z,10.27
2022-11-05T03:34:03.379Z,5.75
2022-11-05T03:36:41.173Z,7.88
2022-11-05T03:39:11.038Z,4.25
2022-11-05T03:41:39.413Z,7.43
2022-11-05T03:44:06.898Z,7.07
2022-11-05T03:46:38.626Z,8.68
2022-11-05T03:49:06.629Z,5.53
2022-11-05T03:51:38.366Z,5.70
2022-11-05T03:54:05.261Z,8.75
2022-11-05T03:56:42.837Z,7.93
2022-11-05T03:59:10.206Z,7.45
2022-11-05T04:01:38.022Z,8.20
2022-11-05T04:04:08.330Z,8.02
2022-11-05T04:06:53.827Z,7.82
2022-11-05T04:09:39.215Z,4.55
2022-11-05T04:12:24.370Z,6.95
2022-11-05T04:14:50.825Z,6.78
2022-11-05T04:17:17.272Z,6.05
2022-11-05T04:20:03.258Z,5.18
2022-11-05T04:22:52.912Z,5.60
2022-11-05T04:25:20.119Z,5.18
2022-11-05T04:27:46.700Z,6.57
2022-11-05T04:30:21.405Z,7.22
2022-11-05T04:33:04.549Z,4.13
2022-11-05T04:35:36.855Z,5.70
2022-11-05T04:38:05.506Z,5.03
2022-11-05T04:40:32.060Z,3.97
2022-11-05T04:42:58.583Z,6.20
2022-11-05T04:45:26.325Z,6.20
2022-11-05T04:47:52.800Z,4.18
2022-11-05T04:50:19.290Z,5.63
2022-11-05T04:52:45.743Z,3.80
2022-11-05T04:55:12.379Z,9.15
2022-11-05T04:57:38.861Z,4.32
2022-11-05T05:00:07.493Z,4.68
2022-11-05T05:02:34.949Z,7.15
2022-11-05T05:05:01.472Z,4.43
2022-11-05T05:07:28.489Z,7.80
2022-11-05T05:09:54.958Z,10.40
2022-11-05T05:12:22.263Z,6.68
2022-11-05T05:14:49.205Z,5.90
2022-11-05T05:17:16.265Z,4.13
2022-11-05T05:20:01.069Z,3.50
2022-11-05T05:22:27.774Z,5.18
2022-11-05T05:24:55.550Z,7.28
2022-11-05T05:27:23.460Z,5.70
2022-11-05T05:29:50.644Z,3.08
2022-11-05T05:32:17.261Z,7.28
2022-11-05T05:34:43.713Z,5.32
2022-11-05T05:37:10.183Z,6.05
2022-11-05T05:39:36.634Z,8.07
2022-11-05T05:42:03.086Z,9.18
2022-11-05T05:44:29.536Z,9.32
2022-11-05T05:46:55.979Z,8.32
2022-11-05T05:49:22.442Z,8.73
2022-11-05T05:51:49.634Z,5.78
2022-11-05T05:54:17.078Z,6.03
2022-11-05T05:56:46.237Z,6.05
2022-11-05T05:59:12.694Z,6.43
2022-11-05T06:01:39.616Z,4.35
2022-11-05T06:04:06.150Z,6.03
2022-11-05T06:06:32.593Z,7.75
2022-11-05T06:08:59.048Z,8.65
2022-11-05T06:11:25.854Z,6.60
2022-11-05T06:13:52.371Z,5.90
2022-11-05T06:16:21.350Z,4.97
2022-11-05T06:18:47.811Z,5.10
2022-11-05T06:21:17.000Z,2.50
2022-11-05T06:23:45.612Z,5.47
2022-11-05T06:26:14.569Z,8.13
2022-11-05T06:28:42.041Z,8.57
2022-11-05T06:31:09.656Z,4.10
2022-11-05T06:33:36.114Z,5.88
2022-11-05T06:36:04.257Z,6.57
2022-11-05T06:38:35.168Z,10.05
2022-11-05T06:41:07.260Z,7.22
2022-11-05T06:43:36.476Z,2.35
2022-11-05T06:46:03.302Z,6.18
2022-11-05T06:48:30.156Z,8.02
2022-11-05T06:50:56.603Z,5.57
2022-11-05T06:53:23.070Z,6.80
2022-11-05T06:55:49.558Z,4.15
2022-11-05T06:58:16.384Z,3.50
2022-11-05T07:00:42.935Z,4.78
2022-11-05T07:03:11.043Z,7.43
2022-11-05T07:05:40.563Z,5.88
2022-11-05T07:08:07.050Z,9.45
2022-11-05T07:10:33.504Z,3.95
2022-11-05T07:13:03.738Z,4.00
2022-11-05T07:15:33.153Z,5.57
2022-11-05T07:18:00.432Z,4.05
2022-11-05T07:20:32.326Z,4.60
2022-11-05T07:23:20.372Z,6.05
2022-11-05T07:25:46.856Z,5.30
2022-11-05T07:28:14.369Z,4.20
2022-11-05T07:30:40.832Z,5.65
2022-11-05T07:33:07.396Z,4.60
2022-11-05T07:35:33.855Z,5.65
2022-11-05T07:38:00.313Z,8.55
2022-11-05T07:40:28.716Z,7.20
2022-11-05T07:42:59.752Z,5.13
2022-11-05T07:45:27.441Z,3.85
2022-11-05T07:47:59.130Z,4.90
2022-11-05T07:50:27.074Z,5.00
2022-11-05T07:52:53.651Z,4.25
2022-11-05T07:55:20.723Z,7.72
2022-11-05T07:57:48.994Z,3.83
2022-11-05T08:00:21.106Z,5.43
2022-11-05T08:03:00.911Z,5.30
2022-11-05T08:05:44.465Z,8.52
2022-11-05T08:08:12.626Z,5.07
2022-11-05T08:10:39.396Z,8.13
2022-11-05T08:13:07.047Z,4.60
2022-11-05T08:15:34.204Z,2.75
2022-11-05T08:18:20.842Z,4.90
2022-11-05T08:20:47.474Z,5.70
2022-11-05T08:23:14.512Z,2.97
2022-11-05T08:25:41.912Z,2.50
2022-11-05T08:28:11.406Z,2.92
2022-11-05T08:30:37.966Z,2.30
2022-11-05T08:33:07.037Z,6.75
2022-11-05T08:35:35.001Z,3.25
2022-11-05T08:38:03.121Z,4.10
2022-11-05T08:40:34.645Z,6.68
2022-11-05T08:43:05.319Z,4.72
2022-11-05T08:45:31.764Z,4.28
2022-11-05T08:48:03.119Z,3.97
2022-11-05T08:50:29.803Z,3.47
2022-11-05T08:52:56.438Z,2.80
2022-11-05T08:55:23.049Z,3.42
2022-11-05T08:57:55.220Z,4.97
2022-11-05T09:00:21.659Z,5.20
2022-11-05T09:02:48.113Z,3.25
2022-11-05T09:05:14.561Z,6.63
2022-11-05T09:07:41.049Z,4.63
2022-11-05T09:10:07.733Z,5.70
2022-11-05T09:12:34.226Z,4.60
2022-11-05T09:15:00.685Z,6.78
2022-11-05T09:17:27.153Z,3.10
2022-11-05T09:19:53.645Z,3.78
2022-11-05T09:22:20.092Z,4.03
2022-11-05T09:24:46.557Z,3.88
2022-11-05T09:27:14.517Z,6.22
2022-11-05T09:29:41.688Z,3.53
2022-11-05T09:32:08.588Z,6.18
2022-11-05T09:34:35.477Z,3.25
2022-11-05T09:37:02.011Z,3.90
2022-11-05T09:39:28.472Z,3.00
2022-11-05T09:41:59.267Z,6.10
2022-11-05T09:44:29.069Z,1.35
2022-11-05T09:47:01.002Z,2.97
2022-11-05T09:49:39.694Z,4.00
2022-11-05T09:52:19.084Z,2.95
2022-11-05T09:54:47.984Z,1.25
2022-11-05T09:57:18.899Z,1.90
2022-11-05T09:59:48.395Z,0.82
2022-11-05T10:02:46.176Z,2.22
2022-11-05T10:05:13.755Z,2.25
2022-11-05T10:07:47.189Z,4.40
2022-11-05T10:10:41.182Z,1.33
2022-11-05T10:13:13.565Z,2.55
2022-11-05T10:15:44.276Z,1.83
2022-11-05T10:18:19.401Z,1.23
2022-11-05T10:20:48.456Z,4.40
2022-11-05T10:23:19.598Z,3.80
2022-11-05T10:25:50.532Z,0.85
2022-11-05T10:28:19.792Z,2.50
2022-11-05T10:30:47.714Z,2.35
2022-11-05T10:33:18.590Z,5.88
2022-11-05T10:35:53.587Z,0.77
2022-11-05T10:38:20.092Z,1.25
2022-11-05T10:41:27.707Z,2.00
2022-11-05T10:44:01.033Z,2.03
2022-11-05T10:46:36.279Z,1.65
2022-11-05T10:49:18.813Z,2.53
2022-11-05T10:51:46.723Z,2.40
2022-11-05T10:54:19.634Z,2.53
2022-11-05T10:56:46.223Z,2.17
2022-11-05T10:59:24.140Z,1.35
2022-11-05T11:02:17.473Z,2.78
2022-11-05T11:04:43.995Z,3.87
2022-11-05T11:07:28.546Z,3.08
2022-11-05T11:09:55.111Z,1.45
2022-11-05T11:12:24.636Z,1.63
2022-11-05T11:15:15.056Z,4.07
2022-11-05T11:17:41.591Z,5.78
2022-11-05T11:20:24.467Z,2.13
2022-11-05T11:23:12.636Z,2.08
2022-11-05T11:25:46.179Z,4.32
2022-11-05T11:28:20.020Z,2.47
2022-11-05T11:30:49.173Z,3.33
2022-11-05T11:33:20.231Z,2.63
2022-11-05T11:35:47.396Z,2.65
2022-11-05T11:38:15.785Z,1.58
2022-11-05T11:40:42.459Z,5.43
2022-11-05T11:43:35.789Z,4.72
2022-11-05T11:46:07.777Z,2.83
2022-11-05T11:48:36.394Z,4.97
2022-11-05T11:51:20.102Z,5.55
2022-11-05T11:53:49.703Z,2.78
2022-11-05T11:56:18.965Z,4.57
2022-11-05T11:58:49.587Z,1.80
2022-11-05T12:01:39.780Z,2.85
2022-11-05T12:04:35.307Z,3.85
2022-11-05T12:07:28.094Z,3.67
2022-11-05T12:10:14.892Z,2.75
2022-11-05T12:12:49.607Z,1.73
2022-11-05T12:15:37.755Z,3.45
2022-11-05T12:18:06.507Z,0.80
2022-11-05T12:20:57.828Z,1.27
2022-11-05T12:23:34.678Z,1.90
2022-11-05T12:26:30.129Z,2.15
2022-11-05T12:29:35.788Z,2.85
2022-11-05T12:32:20.951Z,0.85
2022-11-05T12:35:10.898Z,2.03
2022-11-05T12:38:12.349Z,2.10
2022-11-05T12:41:00.495Z,1.63
2022-11-05T12:43:32.760Z,3.30
2022-11-05T12:46:23.172Z,1.75
2022-11-05T12:49:20.674Z,3.67
2022-11-05T12:52:03.516Z,1.80
2022-11-05T12:54:51.725Z,1.15
2022-11-05T12:57:19.867Z,1.65
2022-11-05T12:59:52.444Z,1.38
2022-11-05T13:02:24.914Z,2.53
2022-11-05T13:04:59.232Z,3.90
2022-11-05T13:07:32.623Z,3.58
2022-11-05T13:10:06.294Z,3.25
2022-11-05T13:12:35.549Z,3.05
2022-11-05T13:15:28.267Z,5.43
2022-11-05T13:18:13.238Z,4.45
2022-11-05T13:20:41.577Z,2.35
2022-11-05T13:23:29.880Z,3.33
2022-11-05T13:26:00.640Z,3.75
2022-11-05T13:28:35.751Z,2.75
2022-11-05T13:31:03.630Z,4.53
2022-11-05T13:33:44.556Z,1.60
2022-11-05T13:37:06.441Z,2.85
2022-11-05T13:39:53.297Z,3.50
2022-11-05T13:42:47.817Z,4.30
2022-11-05T13:45:42.461Z,2.25
2022-11-05T13:48:32.326Z,2.17
2022-11-05T13:51:17.564Z,2.97
2022-11-05T13:54:22.762Z,5.65
2022-11-05T13:57:07.170Z,5.57
2022-11-05T14:00:09.066Z,4.82
2022-11-05T14:02:42.387Z,3.38
2022-11-05T14:05:22.616Z,3.33
2022-11-05T14:07:49.508Z,5.13
2022-11-05T14:10:39.038Z,5.00
2022-11-05T14:13:18.075Z,5.30
2022-11-05T14:16:02.109Z,9.93
2022-11-05T14:18:37.052Z,5.63
2022-11-05T14:21:05.529Z,2.03
2022-11-05T14:23:40.138Z,4.35
2022-11-05T14:26:24.443Z,2.67
2022-11-05T14:29:10.675Z,2.42
2022-11-05T14:34:56.917Z,1.00
2022-11-05T14:37:25.999Z,5.13
2022-11-05T14:39:53.677Z,3.45
2022-11-05T14:42:24.798Z,3.47
2022-11-05T14:45:02.213Z,5.30
2022-11-05T14:47:38.551Z,3.40
2022-11-05T14:50:11.910Z,1.88
2022-11-05T14:52:39.673Z,3.67
2022-11-05T14:55:07.243Z,2.53
2022-11-05T14:57:42.447Z,4.63
2022-11-05T15:00:40.483Z,4.13
2022-11-05T15:03:28.374Z,2.50
2022-11-05T15:06:04.861Z,2.63
2022-11-05T15:08:54.264Z,4.28
2022-11-05T15:11:30.525Z,4.07
2022-11-05T15:14:16.316Z,2.83
2022-11-05T15:16:43.730Z,3.15
2022-11-05T15:19:34.042Z,4.72
2022-11-05T15:22:04.433Z,3.03
2022-11-05T15:24:31.267Z,5.05
2022-11-05T15:27:08.296Z,5.53
2022-11-05T15:29:34.739Z,5.05
2022-11-05T15:32:01.214Z,4.55
2022-11-05T15:34:33.006Z,2.17
2022-11-05T15:37:12.536Z,3.75
2022-11-05T15:39:41.833Z,2.40
2022-11-05T15:42:18.730Z,5.13
2022-11-05T15:44:47.481Z,4.72
2022-11-05T15:47:15.100Z,4.00
2022-11-05T15:49:43.379Z,4.95
2022-11-05T15:52:17.702Z,3.67
2022-11-05T15:54:44.690Z,3.83
2022-11-05T15:57:28.529Z,6.20
2022-11-05T16:02:35.652Z,4.28
2022-11-05T16:05:06.642Z,2.20
2022-11-05T16:07:33.219Z,4.32
2022-11-05T16:10:00.984Z,3.92
2022-11-05T16:12:30.258Z,3.92
2022-11-05T16:15:17.689Z,3.05
2022-11-05T16:17:55.965Z,4.10
2022-11-05T16:20:32.259Z,3.75
2022-11-05T16:23:04.435Z,6.25
2022-11-05T16:25:43.561Z,3.42
2022-11-05T16:28:30.061Z,5.47
2022-11-05T16:31:01.630Z,10.43
2022-11-05T16:33:40.501Z,6.45
2022-11-05T16:36:07.938Z,2.90
2022-11-05T16:38:34.410Z,4.35
2022-11-05T16:41:00.902Z,7.63
2022-11-05T16:43:27.548Z,11.10
2022-11-05T16:45:55.877Z,6.07
2022-11-05T16:48:22.483Z,8.50
2022-11-05T16:50:49.039Z,6.55
2022-11-05T16:53:15.769Z,7.18
2022-11-05T16:55:43.538Z,8.93
2022-11-05T16:58:24.260Z,6.63
2022-11-05T17:00:52.917Z,6.85
2022-11-05T17:03:19.562Z,8.93
2022-11-05T17:05:46.197Z,6.40
2022-11-05T17:08:13.043Z,7.10
2022-11-05T17:10:39.748Z,9.38
2022-11-05T17:13:06.215Z,7.70
2022-11-05T17:15:36.552Z,8.85
2022-11-05T17:18:04.726Z,4.75
2022-11-05T17:20:38.268Z,6.10
2022-11-05T17:23:06.817Z,5.10
2022-11-05T17:25:34.074Z,8.93
2022-11-05T17:28:00.587Z,6.22
2022-11-05T17:30:28.259Z,6.97
2022-11-05T17:32:54.846Z,5.95
2022-11-05T17:35:21.420Z,5.95
2022-11-05T17:37:47.971Z,5.20
2022-11-05T17:40:16.948Z,5.78
2022-11-05T17:42:43.610Z,6.28
2022-11-05T17:45:11.360Z,4.60
2022-11-05T17:47:37.988Z,5.50
2022-11-05T17:50:05.644Z,7.65
2022-11-05T17:52:32.169Z,5.68
2022-11-05T17:54:58.612Z,7.20
2022-11-05T17:57:25.121Z,9.13
2022-11-05T17:59:51.699Z,5.93
2022-11-05T18:02:18.319Z,4.53
2022-11-05T18:04:44.942Z,6.93
2022-11-05T18:07:11.380Z,5.47
2022-11-05T18:09:37.902Z,12.75
2022-11-05T18:12:04.718Z,7.15
2022-11-05T18:14:31.193Z,5.65
2022-11-05T18:17:00.125Z,7.20
2022-11-05T18:19:27.675Z,9.43
2022-11-05T18:21:54.873Z,7.28
2022-11-05T18:24:21.888Z,8.90
2022-11-05T18:26:48.650Z,5.25
2022-11-05T18:29:15.173Z,8.73
2022-11-05T18:31:41.618Z,10.00
2022-11-05T18:34:10.277Z,8.48
2022-11-05T18:36:36.801Z,8.75
2022-11-05T18:39:04.018Z,10.07
2022-11-05T18:41:30.544Z,8.70
2022-11-05T18:43:59.797Z,10.70
2022-11-05T18:46:51.643Z,8.80
2022-11-05T18:49:13.700Z,8.77
2022-11-05T18:51:40.424Z,13.15
2022-11-05T18:54:07.363Z,7.50
2022-11-05T18:56:33.839Z,10.02
2022-11-05T18:59:30.172Z,10.63
2022-11-05T19:01:47.089Z,8.95
2022-11-05T19:04:13.734Z,11.00
2022-11-05T19:06:40.562Z,6.88
2022-11-05T19:09:11.839Z,9.35
2022-11-05T19:11:39.009Z,13.75
2022-11-05T19:14:05.500Z,12.88
2022-11-05T19:16:32.035Z,13.20
2022-11-05T19:18:59.755Z,14.40
2022-11-05T19:21:26.734Z,15.45
2022-11-05T19:23:53.324Z,11.60
2022-11-05T19:26:28.119Z,12.35
2022-11-05T19:28:55.511Z,10.02
2022-11-05T19:31:23.518Z,14.15
2022-11-05T19:33:51.047Z,11.82
2022-11-05T19:36:18.633Z,12.70
2022-11-05T19:38:45.087Z,11.82
2022-11-05T19:41:14.080Z,14.60
2022-11-05T19:43:42.383Z,13.77
2022-11-05T19:46:14.266Z,12.75
2022-11-05T19:48:40.946Z,15.98
2022-11-05T19:51:09.463Z,15.35
2022-11-05T19:53:37.810Z,14.38
2022-11-05T19:56:06.512Z,14.25
2022-11-05T19:58:32.997Z,15.32
2022-11-05T20:00:59.479Z,17.02
2022-11-05T20:03:25.960Z,12.50
2022-11-05T20:05:52.458Z,12.57
2022-11-05T20:08:18.961Z,18.27
2022-11-05T20:10:46.156Z,14.88
2022-11-05T20:13:18.567Z,15.98
2022-11-05T20:18:16.051Z,15.43
2022-11-05T20:20:43.903Z,15.35
2022-11-05T20:23:11.517Z,14.38
2022-11-05T20:25:38.506Z,19.58
2022-11-05T20:28:05.351Z,14.00
2022-11-05T20:30:31.903Z,16.25
2022-11-05T20:32:58.385Z,13.70
2022-11-05T20:35:25.028Z,16.45
2022-11-05T20:37:54.149Z,13.85
2022-11-05T20:40:20.969Z,19.45
2022-11-05T20:42:47.448Z,15.52
2022-11-05T20:45:13.917Z,14.60
2022-11-05T20:47:40.472Z,13.82
2022-11-05T20:50:07.883Z,12.45
2022-11-05T20:52:34.383Z,14.45
2022-11-05T20:55:02.189Z,14.88
2022-11-05T20:57:28.797Z,17.73
2022-11-05T20:59:55.325Z,12.60
2022-11-05T21:02:21.917Z,18.60
2022-11-05T21:04:48.587Z,16.67
2022-11-05T21:07:15.063Z,17.75
2022-11-05T21:09:41.512Z,17.25
2022-11-05T21:12:11.100Z,13.05
2022-11-05T21:14:41.348Z,18.02
2022-11-05T21:17:09.541Z,18.73
2022-11-05T21:19:36.397Z,14.90
2022-11-05T21:22:04.167Z,21.27
2022-11-05T21:24:31.807Z,17.52
2022-11-05T21:26:58.287Z,18.05
2022-11-05T21:29:24.922Z,17.15
2022-11-05T21:31:51.508Z,15.13
2022-11-05T21:34:18.856Z,15.70
2022-11-05T21:36:46.977Z,15.48
2022-11-05T21:39:14.043Z,14.73
2022-11-05T21:41:40.725Z,14.93
2022-11-05T21:44:07.238Z,19.75
2022-11-05T21:46:33.737Z,17.02
2022-11-05T21:49:00.245Z,14.68
2022-11-05T21:51:45.480Z,15.75
2022-11-05T21:54:30.490Z,13.32
2022-11-05T21:57:16.289Z,17.10
2022-11-05T21:59:48.548Z,14.75
2022-11-05T22:02:22.679Z,17.55
2022-11-05T22:05:03.058Z,16.83
2022-11-05T22:07:32.437Z,16.73
2022-11-05T22:10:01.302Z,13.88
2022-11-05T22:12:28.155Z,20.52
2022-11-05T22:14:55.072Z,17.88
2022-11-05T22:17:21.836Z,16.17
2022-11-05T22:19:48.389Z,17.30
2022-11-05T22:22:15.156Z,16.95
2022-11-05T22:24:42.093Z,17.95
2022-11-05T22:27:12.812Z,15.80
2022-11-05T22:29:40.543Z,18.35
2022-11-05T22:32:07.249Z,17.83
2022-11-05T22:34:33.729Z,21.55
2022-11-05T22:37:00.349Z,14.85
2022-11-05T22:39:26.811Z,14.25
2022-11-05T22:41:54.731Z,17.02
2022-11-05T22:44:21.438Z,20.90
2022-11-05T22:46:48.004Z,13.80
2022-11-05T22:49:14.785Z,13.43
2022-11-05T22:51:41.342Z,18.08
2022-11-05T22:54:09.101Z,13.38
2022-11-05T22:56:41.898Z,14.68
2022-11-05T22:59:11.934Z,12.13
2022-11-05T23:01:38.701Z,12.55
2022-11-05T23:04:05.461Z,13.85
2022-11-05T23:06:54.670Z,12.52
2022-11-05T23:09:42.384Z,11.00
2022-11-05T23:12:22.213Z,15.18
2022-11-05T23:14:49.999Z,15.52
2022-11-05T23:17:35.012Z,12.23
2022-11-05T23:20:20.182Z,13.48
2022-11-05T23:23:05.250Z,13.35
2022-11-05T23:25:31.743Z,14.82
2022-11-05T23:27:58.206Z,13.02
2022-11-05T23:30:26.175Z,14.13
2022-11-05T23:32:53.389Z,13.88
2022-11-05T23:35:43.142Z,12.35
2022-11-05T23:38:28.079Z,13.50
2022-11-05T23:41:13.020Z,13.05
2022-11-05T23:43:57.996Z,13.80
2022-11-05T23:46:43.075Z,15.05
2022-11-05T23:49:09.531Z,13.18
2022-11-05T23:51:35.983Z,13.75
2022-11-05T23:54:02.462Z,15.82
2022-11-05T23:56:28.904Z,14.55
2022-11-05T23:58:55.387Z,18.95
